sensor_id;sensor_type;location;lat;lon;timestamp;temperature;humidity
33382;DHT22;21342;48.786;9.166;2022-08-16T00:00:32;21.20;99.00
33382;DHT22;21342;48.786;9.166;2022-08-16T00:03:00;21.20;99.00
33382;DHT22;21342;48.786;9.166;2022-08-16T00:05:28;21.10;99.00
33382;DHT22;21342;48.786;9.166;2022-08-16T00:07:56;21.30;99.30
33382;DHT22;21342;48.786;9.166;2022-08-16T00:10:26;21.30;99.20
33382;DHT22;21342;48.786;9.166;2022-08-16T00:12:53;21.40;98.90
33382;DHT22;21342;48.786;9.166;2022-08-16T00:15:23;21.50;99.00
33382;DHT22;21342;48.786;9.166;2022-08-16T00:17:52;21.40;98.50
33382;DHT22;21342;48.786;9.166;2022-08-16T00:20:19;21.30;98.40
33382;DHT22;21342;48.786;9.166;2022-08-16T00:22:49;21.30;98.30
33382;DHT22;21342;48.786;9.166;2022-08-16T00:25:18;21.30;98.50
33382;DHT22;21342;48.786;9.166;2022-08-16T00:27:46;21.30;98.20
33382;DHT22;21342;48.786;9.166;2022-08-16T00:30:15;21.50;97.80
33382;DHT22;21342;48.786;9.166;2022-08-16T00:32:45;21.30;98.10
33382;DHT22;21342;48.786;9.166;2022-08-16T00:35:17;21.20;98.50
33382;DHT22;21342;48.786;9.166;2022-08-16T00:37:46;21.10;98.70
33382;DHT22;21342;48.786;9.166;2022-08-16T00:40:17;21.00;99.30
33382;DHT22;21342;48.786;9.166;2022-08-16T00:42:45;20.90;99.60
33382;DHT22;21342;48.786;9.166;2022-08-16T00:45:24;20.80;99.60
33382;DHT22;21342;48.786;9.166;2022-08-16T00:47:54;20.80;99.70
33382;DHT22;21342;48.786;9.166;2022-08-16T00:50:26;20.90;99.80
33382;DHT22;21342;48.786;9.166;2022-08-16T00:52:54;21.00;99.70
33382;DHT22;21342;48.786;9.166;2022-08-16T00:55:23;21.20;99.60
33382;DHT22;21342;48.786;9.166;2022-08-16T00:57:54;21.20;99.60
33382;DHT22;21342;48.786;9.166;2022-08-16T01:00:23;21.20;99.70
33382;DHT22;21342;48.786;9.166;2022-08-16T01:02:54;21.20;99.90
33382;DHT22;21342;48.786;9.166;2022-08-16T01:05:23;21.10;99.90
33382;DHT22;21342;48.786;9.166;2022-08-16T01:07:52;21.10;99.90
33382;DHT22;21342;48.786;9.166;2022-08-16T01:10:20;21.10;99.90
33382;DHT22;21342;48.786;9.166;2022-08-16T01:12:48;21.10;99.90
33382;DHT22;21342;48.786;9.166;2022-08-16T01:15:15;21.00;99.90
33382;DHT22;21342;48.786;9.166;2022-08-16T01:17:43;21.00;99.90
33382;DHT22;21342;48.786;9.166;2022-08-16T01:20:14;21.00;99.90
33382;DHT22;21342;48.786;9.166;2022-08-16T01:22:51;20.80;99.90
33382;DHT22;21342;48.786;9.166;2022-08-16T01:25:25;20.80;99.90
33382;DHT22;21342;48.786;9.166;2022-08-16T01:27:56;20.70;99.90
33382;DHT22;21342;48.786;9.166;2022-08-16T01:30:26;20.70;99.90
33382;DHT22;21342;48.786;9.166;2022-08-16T01:32:59;20.60;99.90
33382;DHT22;21342;48.786;9.166;2022-08-16T01:35:29;20.50;99.90
33382;DHT22;21342;48.786;9.166;2022-08-16T01:38:14;20.60;99.90
33382;DHT22;21342;48.786;9.166;2022-08-16T01:40:43;20.60;99.90
33382;DHT22;21342;48.786;9.166;2022-08-16T01:43:10;20.70;99.90
33382;DHT22;21342;48.786;9.166;2022-08-16T01:45:38;20.70;99.90
33382;DHT22;21342;48.786;9.166;2022-08-16T01:48:05;20.70;99.90
33382;DHT22;21342;48.786;9.166;2022-08-16T01:50:33;20.60;99.90
33382;DHT22;21342;48.786;9.166;2022-08-16T01:53:01;20.60;99.90
33382;DHT22;21342;48.786;9.166;2022-08-16T01:55:28;20.50;99.90
33382;DHT22;21342;48.786;9.166;2022-08-16T01:58:01;20.60;99.90
33382;DHT22;21342;48.786;9.166;2022-08-16T02:00:29;20.50;99.90
33382;DHT22;21342;48.786;9.166;2022-08-16T02:02:56;20.50;99.90
33382;DHT22;21342;48.786;9.166;2022-08-16T02:05:24;20.50;99.90
33382;DHT22;21342;48.786;9.166;2022-08-16T02:07:51;20.40;99.90
33382;DHT22;21342;48.786;9.166;2022-08-16T02:10:18;20.50;99.90
33382;DHT22;21342;48.786;9.166;2022-08-16T02:12:45;20.50;99.90
33382;DHT22;21342;48.786;9.166;2022-08-16T02:15:15;20.50;99.90
33382;DHT22;21342;48.786;9.166;2022-08-16T02:17:42;20.50;99.90
33382;DHT22;21342;48.786;9.166;2022-08-16T02:20:10;20.60;99.90
33382;DHT22;21342;48.786;9.166;2022-08-16T02:22:37;20.50;99.90
33382;DHT22;21342;48.786;9.166;2022-08-16T02:25:09;20.60;99.90
33382;DHT22;21342;48.786;9.166;2022-08-16T02:27:37;20.60;99.90
33382;DHT22;21342;48.786;9.166;2022-08-16T02:30:06;20.70;99.90
33382;DHT22;21342;48.786;9.166;2022-08-16T02:32:38;20.80;99.90
33382;DHT22;21342;48.786;9.166;2022-08-16T02:35:06;20.90;99.90
33382;DHT22;21342;48.786;9.166;2022-08-16T02:37:33;20.90;99.90
33382;DHT22;21342;48.786;9.166;2022-08-16T02:40:00;20.90;99.90
33382;DHT22;21342;48.786;9.166;2022-08-16T02:42:27;21.00;99.90
33382;DHT22;21342;48.786;9.166;2022-08-16T02:44:54;21.10;99.90
33382;DHT22;21342;48.786;9.166;2022-08-16T02:47:21;21.20;99.90
33382;DHT22;21342;48.786;9.166;2022-08-16T02:49:50;21.20;99.90
33382;DHT22;21342;48.786;9.166;2022-08-16T02:52:17;21.00;99.90
33382;DHT22;21342;48.786;9.166;2022-08-16T02:54:44;21.00;99.90
33382;DHT22;21342;48.786;9.166;2022-08-16T02:57:12;20.80;99.90
33382;DHT22;21342;48.786;9.166;2022-08-16T02:59:39;20.70;99.90
33382;DHT22;21342;48.786;9.166;2022-08-16T03:02:07;20.70;99.90
33382;DHT22;21342;48.786;9.166;2022-08-16T03:04:35;20.70;99.90
33382;DHT22;21342;48.786;9.166;2022-08-16T03:07:04;20.60;99.90
33382;DHT22;21342;48.786;9.166;2022-08-16T03:09:32;20.60;99.90
33382;DHT22;21342;48.786;9.166;2022-08-16T03:11:59;20.50;99.90
33382;DHT22;21342;48.786;9.166;2022-08-16T03:14:26;20.50;99.90
33382;DHT22;21342;48.786;9.166;2022-08-16T03:16:53;20.50;99.90
33382;DHT22;21342;48.786;9.166;2022-08-16T03:19:21;20.70;99.90
33382;DHT22;21342;48.786;9.166;2022-08-16T03:21:48;20.70;99.90
33382;DHT22;21342;48.786;9.166;2022-08-16T03:24:17;20.70;99.90
33382;DHT22;21342;48.786;9.166;2022-08-16T03:26:44;20.70;99.90
33382;DHT22;21342;48.786;9.166;2022-08-16T03:29:11;20.60;99.90
33382;DHT22;21342;48.786;9.166;2022-08-16T03:31:39;20.70;99.90
33382;DHT22;21342;48.786;9.166;2022-08-16T03:34:06;20.70;99.90
33382;DHT22;21342;48.786;9.166;2022-08-16T03:36:33;20.80;99.90
33382;DHT22;21342;48.786;9.166;2022-08-16T03:39:00;20.80;99.90
33382;DHT22;21342;48.786;9.166;2022-08-16T03:41:29;20.80;99.90
33382;DHT22;21342;48.786;9.166;2022-08-16T03:43:56;20.80;99.90
33382;DHT22;21342;48.786;9.166;2022-08-16T03:46:23;20.80;99.90
33382;DHT22;21342;48.786;9.166;2022-08-16T03:48:50;20.90;99.90
33382;DHT22;21342;48.786;9.166;2022-08-16T03:51:18;21.00;99.90
33382;DHT22;21342;48.786;9.166;2022-08-16T03:53:45;21.00;99.90
33382;DHT22;21342;48.786;9.166;2022-08-16T03:56:13;20.80;99.90
33382;DHT22;21342;48.786;9.166;2022-08-16T03:58:41;20.60;99.90
33382;DHT22;21342;48.786;9.166;2022-08-16T04:01:08;20.50;99.90
33382;DHT22;21342;48.786;9.166;2022-08-16T04:03:36;20.50;99.90
33382;DHT22;21342;48.786;9.166;2022-08-16T04:06:03;20.30;99.90
33382;DHT22;21342;48.786;9.166;2022-08-16T04:08:32;20.30;99.90
33382;DHT22;21342;48.786;9.166;2022-08-16T04:10:59;20.30;99.90
33382;DHT22;21342;48.786;9.166;2022-08-16T04:13:28;20.20;99.90
33382;DHT22;21342;48.786;9.166;2022-08-16T04:15:57;20.10;99.90
33382;DHT22;21342;48.786;9.166;2022-08-16T04:18:26;20.20;99.90
33382;DHT22;21342;48.786;9.166;2022-08-16T04:20:53;20.10;99.90
33382;DHT22;21342;48.786;9.166;2022-08-16T04:23:20;20.20;99.90
33382;DHT22;21342;48.786;9.166;2022-08-16T04:25:48;20.20;99.90
33382;DHT22;21342;48.786;9.166;2022-08-16T04:28:16;20.20;99.90
33382;DHT22;21342;48.786;9.166;2022-08-16T04:30:43;20.20;99.90
33382;DHT22;21342;48.786;9.166;2022-08-16T04:33:11;20.30;99.90
33382;DHT22;21342;48.786;9.166;2022-08-16T04:35:39;20.50;99.90
33382;DHT22;21342;48.786;9.166;2022-08-16T04:38:06;20.40;99.90
33382;DHT22;21342;48.786;9.166;2022-08-16T04:40:33;20.30;99.90
33382;DHT22;21342;48.786;9.166;2022-08-16T04:43:00;20.30;99.90
33382;DHT22;21342;48.786;9.166;2022-08-16T04:45:28;20.50;99.90
33382;DHT22;21342;48.786;9.166;2022-08-16T04:47:55;20.50;99.90
33382;DHT22;21342;48.786;9.166;2022-08-16T04:50:25;20.50;99.90
33382;DHT22;21342;48.786;9.166;2022-08-16T04:52:53;20.70;99.90
33382;DHT22;21342;48.786;9.166;2022-08-16T04:55:24;20.60;99.90
33382;DHT22;21342;48.786;9.166;2022-08-16T04:57:53;20.90;99.90
33382;DHT22;21342;48.786;9.166;2022-08-16T05:00:23;20.90;99.90
33382;DHT22;21342;48.786;9.166;2022-08-16T05:02:52;21.20;99.90
33382;DHT22;21342;48.786;9.166;2022-08-16T05:05:21;21.20;99.90
33382;DHT22;21342;48.786;9.166;2022-08-16T05:07:49;20.90;99.90
33382;DHT22;21342;48.786;9.166;2022-08-16T05:10:17;20.90;99.90
33382;DHT22;21342;48.786;9.166;2022-08-16T05:12:44;20.80;99.90
33382;DHT22;21342;48.786;9.166;2022-08-16T05:15:12;21.00;99.90
33382;DHT22;21342;48.786;9.166;2022-08-16T05:17:40;21.10;99.90
33382;DHT22;21342;48.786;9.166;2022-08-16T05:20:09;21.10;99.90
33382;DHT22;21342;48.786;9.166;2022-08-16T05:22:37;21.20;99.90
33382;DHT22;21342;48.786;9.166;2022-08-16T05:25:07;21.20;99.90
33382;DHT22;21342;48.786;9.166;2022-08-16T05:27:35;21.10;99.90
33382;DHT22;21342;48.786;9.166;2022-08-16T05:30:03;21.10;99.90
33382;DHT22;21342;48.786;9.166;2022-08-16T05:32:31;21.00;99.90
33382;DHT22;21342;48.786;9.166;2022-08-16T05:34:58;20.90;99.90
33382;DHT22;21342;48.786;9.166;2022-08-16T05:37:26;21.10;99.90
33382;DHT22;21342;48.786;9.166;2022-08-16T05:39:53;21.20;99.90
33382;DHT22;21342;48.786;9.166;2022-08-16T05:42:21;21.10;99.90
33382;DHT22;21342;48.786;9.166;2022-08-16T05:44:48;21.20;99.90
33382;DHT22;21342;48.786;9.166;2022-08-16T05:47:16;21.20;99.90
33382;DHT22;21342;48.786;9.166;2022-08-16T05:49:43;21.40;99.90
33382;DHT22;21342;48.786;9.166;2022-08-16T05:52:11;21.40;99.90
33382;DHT22;21342;48.786;9.166;2022-08-16T05:54:38;21.50;99.90
33382;DHT22;21342;48.786;9.166;2022-08-16T05:57:05;21.40;99.90
33382;DHT22;21342;48.786;9.166;2022-08-16T05:59:34;21.40;99.90
33382;DHT22;21342;48.786;9.166;2022-08-16T06:02:01;21.50;99.90
33382;DHT22;21342;48.786;9.166;2022-08-16T06:04:28;21.40;99.90
33382;DHT22;21342;48.786;9.166;2022-08-16T06:06:55;21.30;99.90
33382;DHT22;21342;48.786;9.166;2022-08-16T06:09:23;21.50;99.90
33382;DHT22;21342;48.786;9.166;2022-08-16T06:11:51;21.40;99.90
33382;DHT22;21342;48.786;9.166;2022-08-16T06:14:18;21.60;99.90
33382;DHT22;21342;48.786;9.166;2022-08-16T06:16:47;21.70;99.90
33382;DHT22;21342;48.786;9.166;2022-08-16T06:19:14;21.70;99.90
33382;DHT22;21342;48.786;9.166;2022-08-16T06:21:41;22.00;99.90
33382;DHT22;21342;48.786;9.166;2022-08-16T06:24:08;22.00;99.90
33382;DHT22;21342;48.786;9.166;2022-08-16T06:26:35;22.00;99.90
33382;DHT22;21342;48.786;9.166;2022-08-16T06:29:03;22.00;99.90
33382;DHT22;21342;48.786;9.166;2022-08-16T06:31:30;21.90;99.90
33382;DHT22;21342;48.786;9.166;2022-08-16T06:33:58;21.80;99.90
33382;DHT22;21342;48.786;9.166;2022-08-16T06:36:26;22.00;99.90
33382;DHT22;21342;48.786;9.166;2022-08-16T06:38:54;21.90;99.90
33382;DHT22;21342;48.786;9.166;2022-08-16T06:41:21;22.10;99.90
33382;DHT22;21342;48.786;9.166;2022-08-16T06:43:48;22.00;99.90
33382;DHT22;21342;48.786;9.166;2022-08-16T06:46:24;22.00;99.90
33382;DHT22;21342;48.786;9.166;2022-08-16T06:48:51;22.20;99.90
33382;DHT22;21342;48.786;9.166;2022-08-16T06:51:20;22.30;99.90
33382;DHT22;21342;48.786;9.166;2022-08-16T06:53:47;22.20;99.90
33382;DHT22;21342;48.786;9.166;2022-08-16T06:58:42;22.60;99.90
33382;DHT22;21342;48.786;9.166;2022-08-16T07:01:09;22.60;99.90
33382;DHT22;21342;48.786;9.166;2022-08-16T07:03:37;22.50;99.90
33382;DHT22;21342;48.786;9.166;2022-08-16T07:06:04;22.80;99.90
33382;DHT22;21342;48.786;9.166;2022-08-16T07:08:33;22.80;99.90
33382;DHT22;21342;48.786;9.166;2022-08-16T07:11:00;22.70;99.90
33382;DHT22;21342;48.786;9.166;2022-08-16T07:13:28;22.90;99.90
33382;DHT22;21342;48.786;9.166;2022-08-16T07:15:56;22.90;99.90
33382;DHT22;21342;48.786;9.166;2022-08-16T07:18:24;22.90;99.90
33382;DHT22;21342;48.786;9.166;2022-08-16T07:20:51;23.00;99.90
33382;DHT22;21342;48.786;9.166;2022-08-16T07:23:19;23.00;99.90
33382;DHT22;21342;48.786;9.166;2022-08-16T07:25:48;23.20;99.90
33382;DHT22;21342;48.786;9.166;2022-08-16T07:28:16;23.30;99.90
33382;DHT22;21342;48.786;9.166;2022-08-16T07:30:44;23.30;99.90
33382;DHT22;21342;48.786;9.166;2022-08-16T07:33:12;23.40;99.90
33382;DHT22;21342;48.786;9.166;2022-08-16T07:35:42;23.50;99.90
33382;DHT22;21342;48.786;9.166;2022-08-16T07:38:09;23.50;99.90
33382;DHT22;21342;48.786;9.166;2022-08-16T07:40:37;23.70;99.90
33382;DHT22;21342;48.786;9.166;2022-08-16T07:43:05;23.70;99.90
33382;DHT22;21342;48.786;9.166;2022-08-16T07:45:33;23.80;99.90
33382;DHT22;21342;48.786;9.166;2022-08-16T07:48:00;23.90;99.90
33382;DHT22;21342;48.786;9.166;2022-08-16T07:50:27;24.10;99.90
33382;DHT22;21342;48.786;9.166;2022-08-16T07:52:55;24.20;99.90
33382;DHT22;21342;48.786;9.166;2022-08-16T07:55:22;24.10;99.90
33382;DHT22;21342;48.786;9.166;2022-08-16T07:57:49;24.00;99.90
33382;DHT22;21342;48.786;9.166;2022-08-16T08:00:18;24.10;99.90
33382;DHT22;21342;48.786;9.166;2022-08-16T08:02:45;24.10;99.90
33382;DHT22;21342;48.786;9.166;2022-08-16T08:05:12;24.10;99.90
33382;DHT22;21342;48.786;9.166;2022-08-16T08:07:40;24.10;99.90
33382;DHT22;21342;48.786;9.166;2022-08-16T08:10:08;24.10;99.90
33382;DHT22;21342;48.786;9.166;2022-08-16T08:12:36;24.50;99.90
33382;DHT22;21342;48.786;9.166;2022-08-16T08:15:05;24.80;99.90
33382;DHT22;21342;48.786;9.166;2022-08-16T08:17:34;24.60;99.90
33382;DHT22;21342;48.786;9.166;2022-08-16T08:20:04;24.50;99.90
33382;DHT22;21342;48.786;9.166;2022-08-16T08:22:32;24.60;99.90
33382;DHT22;21342;48.786;9.166;2022-08-16T08:24:59;24.50;99.90
33382;DHT22;21342;48.786;9.166;2022-08-16T08:27:27;24.40;99.90
33382;DHT22;21342;48.786;9.166;2022-08-16T08:29:55;24.60;99.90
33382;DHT22;21342;48.786;9.166;2022-08-16T08:32:23;24.80;99.70
33382;DHT22;21342;48.786;9.166;2022-08-16T08:34:54;25.60;99.20
33382;DHT22;21342;48.786;9.166;2022-08-16T08:37:23;25.90;98.30
33382;DHT22;21342;48.786;9.166;2022-08-16T08:39:52;25.80;97.50
33382;DHT22;21342;48.786;9.166;2022-08-16T08:42:20;25.70;97.70
33382;DHT22;21342;48.786;9.166;2022-08-16T08:44:47;25.40;98.20
33382;DHT22;21342;48.786;9.166;2022-08-16T08:47:14;25.20;98.70
33382;DHT22;21342;48.786;9.166;2022-08-16T08:49:41;25.10;98.70
33382;DHT22;21342;48.786;9.166;2022-08-16T08:52:10;24.90;98.80
33382;DHT22;21342;48.786;9.166;2022-08-16T08:54:37;25.30;98.30
33382;DHT22;21342;48.786;9.166;2022-08-16T08:57:04;26.40;96.90
33382;DHT22;21342;48.786;9.166;2022-08-16T08:59:32;27.30;95.30
33382;DHT22;21342;48.786;9.166;2022-08-16T09:02:00;28.20;94.00
33382;DHT22;21342;48.786;9.166;2022-08-16T09:04:27;28.90;91.70
33382;DHT22;21342;48.786;9.166;2022-08-16T09:06:55;29.30;90.20
33382;DHT22;21342;48.786;9.166;2022-08-16T09:09:24;30.10;87.10
33382;DHT22;21342;48.786;9.166;2022-08-16T09:11:51;29.60;83.70
33382;DHT22;21342;48.786;9.166;2022-08-16T09:14:18;30.10;84.00
33382;DHT22;21342;48.786;9.166;2022-08-16T09:16:45;30.40;82.60
33382;DHT22;21342;48.786;9.166;2022-08-16T09:19:12;30.00;80.50
33382;DHT22;21342;48.786;9.166;2022-08-16T09:21:40;29.70;80.90
33382;DHT22;21342;48.786;9.166;2022-08-16T09:24:07;29.50;82.90
33382;DHT22;21342;48.786;9.166;2022-08-16T09:26:36;29.40;82.20
33382;DHT22;21342;48.786;9.166;2022-08-16T09:29:05;28.70;82.00
33382;DHT22;21342;48.786;9.166;2022-08-16T09:31:32;28.00;83.40
33382;DHT22;21342;48.786;9.166;2022-08-16T09:34:00;27.90;85.50
33382;DHT22;21342;48.786;9.166;2022-08-16T09:36:28;28.10;83.80
33382;DHT22;21342;48.786;9.166;2022-08-16T09:38:55;27.90;86.10
33382;DHT22;21342;48.786;9.166;2022-08-16T09:41:22;27.40;84.80
33382;DHT22;21342;48.786;9.166;2022-08-16T09:43:51;27.10;86.20
33382;DHT22;21342;48.786;9.166;2022-08-16T09:46:18;26.90;86.30
33382;DHT22;21342;48.786;9.166;2022-08-16T09:48:46;26.80;86.80
33382;DHT22;21342;48.786;9.166;2022-08-16T09:51:14;26.80;88.10
33382;DHT22;21342;48.786;9.166;2022-08-16T09:53:41;26.50;87.90
33382;DHT22;21342;48.786;9.166;2022-08-16T09:56:19;26.30;87.80
33382;DHT22;21342;48.786;9.166;2022-08-16T09:58:51;26.20;90.00
33382;DHT22;21342;48.786;9.166;2022-08-16T10:01:18;26.10;90.50
33382;DHT22;21342;48.786;9.166;2022-08-16T10:03:45;25.90;90.80
33382;DHT22;21342;48.786;9.166;2022-08-16T10:06:13;25.70;90.70
33382;DHT22;21342;48.786;9.166;2022-08-16T10:08:40;25.70;91.20
33382;DHT22;21342;48.786;9.166;2022-08-16T10:11:07;25.50;92.20
33382;DHT22;21342;48.786;9.166;2022-08-16T10:13:53;25.50;92.10
33382;DHT22;21342;48.786;9.166;2022-08-16T10:16:20;25.70;91.80
33382;DHT22;21342;48.786;9.166;2022-08-16T10:18:47;25.70;91.90
33382;DHT22;21342;48.786;9.166;2022-08-16T10:21:15;25.70;92.30
33382;DHT22;21342;48.786;9.166;2022-08-16T10:23:43;25.80;91.90
33382;DHT22;21342;48.786;9.166;2022-08-16T10:26:10;26.00;91.30
33382;DHT22;21342;48.786;9.166;2022-08-16T10:28:38;26.00;91.40
33382;DHT22;21342;48.786;9.166;2022-08-16T10:31:08;26.10;91.20
33382;DHT22;21342;48.786;9.166;2022-08-16T10:33:37;26.00;90.80
33382;DHT22;21342;48.786;9.166;2022-08-16T10:36:06;26.10;91.70
33382;DHT22;21342;48.786;9.166;2022-08-16T10:38:35;26.60;91.00
33382;DHT22;21342;48.786;9.166;2022-08-16T10:41:03;26.60;90.80
33382;DHT22;21342;48.786;9.166;2022-08-16T10:43:30;26.60;90.40
33382;DHT22;21342;48.786;9.166;2022-08-16T10:45:57;26.80;90.80
33382;DHT22;21342;48.786;9.166;2022-08-16T10:48:27;27.30;88.90
33382;DHT22;21342;48.786;9.166;2022-08-16T10:50:54;27.90;87.40
33382;DHT22;21342;48.786;9.166;2022-08-16T10:53:23;28.20;86.40
33382;DHT22;21342;48.786;9.166;2022-08-16T10:55:50;27.90;86.60
33382;DHT22;21342;48.786;9.166;2022-08-16T10:58:18;27.80;86.00
33382;DHT22;21342;48.786;9.166;2022-08-16T11:00:45;27.90;85.10
33382;DHT22;21342;48.786;9.166;2022-08-16T11:03:13;28.10;85.00
33382;DHT22;21342;48.786;9.166;2022-08-16T11:05:42;28.30;83.60
33382;DHT22;21342;48.786;9.166;2022-08-16T11:08:10;29.00;81.60
33382;DHT22;21342;48.786;9.166;2022-08-16T11:10:40;29.70;79.30
33382;DHT22;21342;48.786;9.166;2022-08-16T11:13:08;29.80;78.00
33382;DHT22;21342;48.786;9.166;2022-08-16T11:18:04;30.80;74.40
33382;DHT22;21342;48.786;9.166;2022-08-16T11:20:32;31.20;74.30
33382;DHT22;21342;48.786;9.166;2022-08-16T11:23:01;31.40;71.70
33382;DHT22;21342;48.786;9.166;2022-08-16T11:25:29;30.60;73.50
33382;DHT22;21342;48.786;9.166;2022-08-16T11:27:58;29.90;73.70
33382;DHT22;21342;48.786;9.166;2022-08-16T11:30:27;29.50;75.20
33382;DHT22;21342;48.786;9.166;2022-08-16T11:32:55;29.60;74.40
33382;DHT22;21342;48.786;9.166;2022-08-16T11:35:24;29.20;74.80
33382;DHT22;21342;48.786;9.166;2022-08-16T11:37:55;29.70;75.40
33382;DHT22;21342;48.786;9.166;2022-08-16T11:40:25;30.80;72.50
33382;DHT22;21342;48.786;9.166;2022-08-16T11:42:53;31.20;71.40
33382;DHT22;21342;48.786;9.166;2022-08-16T11:45:20;31.50;68.40
33382;DHT22;21342;48.786;9.166;2022-08-16T11:47:48;31.10;67.00
33382;DHT22;21342;48.786;9.166;2022-08-16T11:50:15;30.70;68.30
33382;DHT22;21342;48.786;9.166;2022-08-16T11:52:43;30.60;68.10
33382;DHT22;21342;48.786;9.166;2022-08-16T11:55:11;30.90;67.20
33382;DHT22;21342;48.786;9.166;2022-08-16T11:57:41;31.10;66.20
33382;DHT22;21342;48.786;9.166;2022-08-16T12:00:12;31.90;66.00
33382;DHT22;21342;48.786;9.166;2022-08-16T12:02:41;32.10;65.30
33382;DHT22;21342;48.786;9.166;2022-08-16T12:05:11;31.80;64.90
33382;DHT22;21342;48.786;9.166;2022-08-16T12:07:39;32.00;64.90
33382;DHT22;21342;48.786;9.166;2022-08-16T12:10:11;31.90;64.80
33382;DHT22;21342;48.786;9.166;2022-08-16T12:12:40;32.10;63.80
33382;DHT22;21342;48.786;9.166;2022-08-16T12:15:08;31.60;63.80
33382;DHT22;21342;48.786;9.166;2022-08-16T12:17:36;30.80;64.80
33382;DHT22;21342;48.786;9.166;2022-08-16T12:20:07;31.30;64.40
33382;DHT22;21342;48.786;9.166;2022-08-16T12:22:35;31.50;64.50
33382;DHT22;21342;48.786;9.166;2022-08-16T12:25:08;31.50;63.30
33382;DHT22;21342;48.786;9.166;2022-08-16T12:27:35;30.80;62.50
33382;DHT22;21342;48.786;9.166;2022-08-16T12:30:05;30.70;63.10
33382;DHT22;21342;48.786;9.166;2022-08-16T12:32:33;31.40;61.80
33382;DHT22;21342;48.786;9.166;2022-08-16T12:35:00;31.80;61.70
33382;DHT22;21342;48.786;9.166;2022-08-16T12:37:27;31.80;61.40
33382;DHT22;21342;48.786;9.166;2022-08-16T12:39:59;31.70;60.50
33382;DHT22;21342;48.786;9.166;2022-08-16T12:42:27;31.80;61.00
33382;DHT22;21342;48.786;9.166;2022-08-16T12:44:57;31.80;59.60
33382;DHT22;21342;48.786;9.166;2022-08-16T12:47:25;31.40;59.50
33382;DHT22;21342;48.786;9.166;2022-08-16T12:50:10;32.20;59.80
33382;DHT22;21342;48.786;9.166;2022-08-16T12:52:37;32.10;59.10
33382;DHT22;21342;48.786;9.166;2022-08-16T12:55:05;32.20;58.80
33382;DHT22;21342;48.786;9.166;2022-08-16T12:57:33;31.80;58.50
33382;DHT22;21342;48.786;9.166;2022-08-16T13:00:01;31.30;59.80
33382;DHT22;21342;48.786;9.166;2022-08-16T13:02:29;30.90;59.50
33382;DHT22;21342;48.786;9.166;2022-08-16T13:04:57;31.00;59.60
33382;DHT22;21342;48.786;9.166;2022-08-16T13:07:24;31.10;60.00
33382;DHT22;21342;48.786;9.166;2022-08-16T13:09:51;30.70;59.60
33382;DHT22;21342;48.786;9.166;2022-08-16T13:12:23;30.80;60.50
33382;DHT22;21342;48.786;9.166;2022-08-16T13:14:53;30.50;59.70
33382;DHT22;21342;48.786;9.166;2022-08-16T13:17:23;29.90;60.50
33382;DHT22;21342;48.786;9.166;2022-08-16T13:19:52;29.70;61.70
33382;DHT22;21342;48.786;9.166;2022-08-16T13:22:20;29.80;63.20
33382;DHT22;21342;48.786;9.166;2022-08-16T13:24:47;30.10;61.80
33382;DHT22;21342;48.786;9.166;2022-08-16T13:27:15;30.00;60.40
33382;DHT22;21342;48.786;9.166;2022-08-16T13:29:42;30.20;61.10
33382;DHT22;21342;48.786;9.166;2022-08-16T13:32:09;30.40;59.80
33382;DHT22;21342;48.786;9.166;2022-08-16T13:34:37;30.80;59.90
33382;DHT22;21342;48.786;9.166;2022-08-16T13:37:06;31.20;59.70
33382;DHT22;21342;48.786;9.166;2022-08-16T13:39:33;31.10;59.00
33382;DHT22;21342;48.786;9.166;2022-08-16T13:42:01;30.70;58.20
33382;DHT22;21342;48.786;9.166;2022-08-16T13:44:30;30.80;58.20
33382;DHT22;21342;48.786;9.166;2022-08-16T13:46:57;31.20;58.20
33382;DHT22;21342;48.786;9.166;2022-08-16T13:49:25;31.50;57.70
33382;DHT22;21342;48.786;9.166;2022-08-16T13:51:52;31.10;58.30
33382;DHT22;21342;48.786;9.166;2022-08-16T13:54:21;30.60;58.90
33382;DHT22;21342;48.786;9.166;2022-08-16T13:56:49;30.20;59.60
33382;DHT22;21342;48.786;9.166;2022-08-16T13:59:17;29.80;59.70
33382;DHT22;21342;48.786;9.166;2022-08-16T14:01:45;30.10;60.30
33382;DHT22;21342;48.786;9.166;2022-08-16T14:04:12;30.20;58.70
33382;DHT22;21342;48.786;9.166;2022-08-16T14:06:39;30.30;58.60
33382;DHT22;21342;48.786;9.166;2022-08-16T14:09:06;30.50;59.50
33382;DHT22;21342;48.786;9.166;2022-08-16T14:11:35;30.40;59.30
33382;DHT22;21342;48.786;9.166;2022-08-16T14:14:03;30.20;59.20
33382;DHT22;21342;48.786;9.166;2022-08-16T14:16:31;29.80;59.50
33382;DHT22;21342;48.786;9.166;2022-08-16T14:18:58;29.70;59.70
33382;DHT22;21342;48.786;9.166;2022-08-16T14:21:25;29.70;59.50
33382;DHT22;21342;48.786;9.166;2022-08-16T14:23:52;29.70;60.20
33382;DHT22;21342;48.786;9.166;2022-08-16T14:26:19;29.60;59.50
33382;DHT22;21342;48.786;9.166;2022-08-16T14:28:48;29.50;59.80
33382;DHT22;21342;48.786;9.166;2022-08-16T14:31:17;29.40;60.60
33382;DHT22;21342;48.786;9.166;2022-08-16T14:33:44;29.50;60.50
33382;DHT22;21342;48.786;9.166;2022-08-16T14:36:12;29.40;59.70
33382;DHT22;21342;48.786;9.166;2022-08-16T14:38:40;29.40;60.50
33382;DHT22;21342;48.786;9.166;2022-08-16T14:41:07;29.60;60.00
33382;DHT22;21342;48.786;9.166;2022-08-16T14:43:34;29.70;59.90
33382;DHT22;21342;48.786;9.166;2022-08-16T14:46:02;29.70;60.00
33382;DHT22;21342;48.786;9.166;2022-08-16T14:48:30;29.70;60.50
33382;DHT22;21342;48.786;9.166;2022-08-16T14:50:58;29.80;59.80
33382;DHT22;21342;48.786;9.166;2022-08-16T14:53:25;29.70;60.10
33382;DHT22;21342;48.786;9.166;2022-08-16T14:55:53;29.60;60.40
33382;DHT22;21342;48.786;9.166;2022-08-16T14:58:21;29.60;61.00
33382;DHT22;21342;48.786;9.166;2022-08-16T15:00:50;29.60;60.90
33382;DHT22;21342;48.786;9.166;2022-08-16T15:03:19;29.60;59.70
33382;DHT22;21342;48.786;9.166;2022-08-16T15:05:48;29.50;59.80
33382;DHT22;21342;48.786;9.166;2022-08-16T15:08:15;29.40;60.10
33382;DHT22;21342;48.786;9.166;2022-08-16T15:10:43;29.40;60.10
33382;DHT22;21342;48.786;9.166;2022-08-16T15:13:12;29.40;60.10
33382;DHT22;21342;48.786;9.166;2022-08-16T15:15:39;29.60;59.90
33382;DHT22;21342;48.786;9.166;2022-08-16T15:18:07;29.70;59.70
33382;DHT22;21342;48.786;9.166;2022-08-16T15:20:36;29.70;59.70
33382;DHT22;21342;48.786;9.166;2022-08-16T15:23:05;29.60;59.50
33382;DHT22;21342;48.786;9.166;2022-08-16T15:25:34;29.50;59.60
33382;DHT22;21342;48.786;9.166;2022-08-16T15:28:04;29.50;59.60
33382;DHT22;21342;48.786;9.166;2022-08-16T15:30:34;29.50;59.20
33382;DHT22;21342;48.786;9.166;2022-08-16T15:33:05;29.50;59.50
33382;DHT22;21342;48.786;9.166;2022-08-16T15:35:32;29.40;59.40
33382;DHT22;21342;48.786;9.166;2022-08-16T15:38:02;29.30;59.40
33382;DHT22;21342;48.786;9.166;2022-08-16T15:40:30;29.30;59.80